| time (UTC) | temp F | wind direction | speed knots | gust knots | rain 1hr in | rain 24hr in | rain mn in | humidity % | barometer mb |
| 20260509120031 | 60 | 246 | 2.6 | 7.8 | 0.00 | 0.00 | 0.00 | 37 | 1022.7 |
| 20260509114526 | 61 | 287 | 1.7 | 7.8 | 0.00 | 0.00 | 0.00 | 38 | 1022.8 |
| 20260509113023 | 61 | 343 | 1.7 | 8.7 | 0.00 | 0.00 | 0.00 | 41 | 1022.9 |
| 20260509111522 | 61 | 279 | 2.6 | 9.6 | 0.00 | 0.00 | 0.00 | 38 | 1023.1 |
| 20260509110026 | 61 | 284 | 0.9 | 7.8 | 0.00 | 0.00 | 0.00 | 40 | 1023.1 |
| 20260509104519 | 61 | 269 | 1.7 | 6.1 | 0.00 | 0.00 | 0.00 | 41 | 1023.2 |
| 20260509103016 | 59 | 229 | 4.3 | 9.6 | 0.00 | 0.00 | 0.00 | 40 | 1023.4 |
| 20260509101519 | 59 | 71 | 3.5 | 8.7 | 0.00 | 0.00 | 0.00 | 44 | 1023.7 |
| 20260509100011 | 60 | 295 | 1.7 | 7.0 | 0.00 | 0.00 | 0.00 | 48 | 1023.8 |
| 20260509094513 | 60 | 215 | 0.9 | 6.1 | 0.00 | 0.00 | 0.00 | 47 | 1023.9 |
| 20260509093008 | 59 | 325 | 2.6 | 7.0 | 0.00 | 0.00 | 0.00 | 49 | 1023.9 |
| 20260509091506 | 58 | 261 | 1.7 | 7.8 | 0.00 | 0.00 | 0.00 | 51 | 1024.0 |
| 20260509090002 | 57 | 350 | 1.7 | 7.0 | 0.00 | 0.00 | 0.00 | 54 | 1024.0 |
| 20260509084502 | 57 | 298 | 0.9 | 3.5 | 0.00 | 0.00 | 0.00 | 56 | 1024.0 |
| 20260509083057 | 56 | 344 | 0.9 | 4.3 | 0.00 | 0.00 | 0.00 | 58 | 1024.0 |
| 20260509081559 | 56 | 36 | 0.0 | 4.3 | 0.00 | 0.00 | 0.00 | 63 | 1024.1 |
| 20260509080059 | 55 | 346 | 1.7 | 5.2 | 0.00 | 0.00 | 0.00 | 64 | 1024.1 |
| 20260509074552 | 54 | 4 | 0.9 | 7.0 | 0.00 | 0.00 | 0.00 | 67 | 1024.0 |
| 20260509073049 | 55 | 329 | 2.6 | 7.0 | 0.00 | 0.00 | 0.00 | 65 | 1024.2 |
| 20260509071548 | 54 | 274 | 0.9 | 7.0 | 0.00 | 0.00 | 0.00 | 66 | 1024.0 |
| 20260509070046 | 53 | 297 | 0.0 | 5.2 | 0.00 | 0.00 | 0.00 | 69 | 1024.0 |
| 20260509064551 | 52 | 192 | 0.0 | 5.2 | 0.00 | 0.00 | 0.00 | 76 | 1024.0 |
| 20260509063036 | 51 | 170 | 0.0 | 3.5 | 0.00 | 0.00 | 0.00 | 77 | 1024.0 |
| 20260509061534 | 50 | 210 | 1.7 | 4.3 | 0.00 | 0.00 | 0.00 | 78 | 1023.9 |
| 20260509060029 | 50 | 167 | 0.0 | 2.6 | 0.00 | 0.00 | 0.00 | 79 | 1023.9 |
| 20260509054524 | 48 | 192 | 2.6 | 5.2 | 0.00 | 0.00 | 0.00 | 83 | 1023.9 |
| 20260509053023 | 47 | 175 | 0.0 | 1.7 | 0.00 | 0.00 | 0.00 | 83 | 1023.9 |
| 20260509051522 | 45 | 175 | 0.0 | 1.7 | 0.00 | 0.00 | 0.00 | 85 | 1023.8 |
| 20260509050023 | 43 | 194 | 0.0 | 0.0 | 0.00 | 0.00 | 0.00 | 89 | 1023.8 |
| 20260509044513 | 41 | 198 | 0.0 | 0.0 | 0.00 | 0.00 | 0.00 | 91 | 1023.8 |
| 20260509043012 | 40 | 222 | 0.0 | 0.0 | 0.00 | 0.00 | 0.00 | 91 | 1023.7 |
| 20260509041518 | 38 | 222 | 0.0 | 0.0 | 0.00 | 0.00 | 0.00 | 91 | 1023.8 |
| 20260509040010 | 38 | 222 | 0.0 | 0.0 | 0.00 | 0.00 | 0.00 | 90 | 1023.8 |
| 20260509034508 | 38 | 222 | 0.0 | 0.0 | 0.00 | 0.00 | 0.00 | 90 | 1023.8 |
| 20260509033007 | 37 | 222 | 0.0 | 0.0 | 0.00 | 0.00 | 0.00 | 90 | 1023.9 |
| 20260509031520 | 37 | 222 | 0.0 | 0.0 | 0.00 | 0.00 | 0.00 | 90 | 1024.0 |
| 20260509030006 | 37 | 222 | 0.0 | 0.0 | 0.00 | 0.00 | 0.00 | 90 | 1024.0 |
| 20260509024502 | 38 | 222 | 0.0 | 0.0 | 0.00 | 0.00 | 0.00 | 90 | 1024.1 |
| 20260509023000 | 38 | 222 | 0.0 | 0.0 | 0.00 | 0.00 | 0.00 | 89 | 1024.2 |
| 20260509021600 | 38 | 222 | 0.0 | 0.0 | 0.00 | 0.00 | 0.00 | 89 | 1024.2 |
| 20260509020100 | 38 | 222 | 0.0 | 0.0 | 0.00 | 0.00 | 0.00 | 89 | 1024.4 |
| 20260509014558 | 39 | 222 | 0.0 | 0.0 | 0.00 | 0.00 | 0.00 | 89 | 1024.3 |
| 20260509013056 | 39 | 222 | 0.0 | 0.0 | 0.00 | 0.00 | 0.00 | 89 | 1024.4 |
| 20260509011558 | 39 | 222 | 0.0 | 0.0 | 0.00 | 0.00 | 0.00 | 88 | 1024.4 |
| 20260509010059 | 41 | 222 | 0.0 | 2.6 | 0.00 | 0.00 | 0.00 | 87 | 1024.5 |
| 20260509004601 | 41 | 236 | 1.7 | 3.5 | 0.00 | 0.00 | 0.00 | 89 | 1024.4 |
| 20260509003053 | 40 | 223 | 2.6 | 3.5 | 0.00 | 0.00 | 0.00 | 89 | 1024.4 |
| 20260509001549 | 40 | 221 | 0.0 | 0.0 | 0.00 | 0.00 | 0.00 | 90 | 1024.4 |
| 20260509000049 | 40 | 221 | 0.0 | 0.0 | 0.00 | 0.00 | 0.00 | 90 | 1024.5 |
| 20260508234550 | 40 | 232 | 0.0 | 0.0 | 0.00 | 0.00 | 0.00 | 89 | 1024.4 |
| 20260508233050 | 40 | 321 | 0.0 | 0.0 | 0.00 | 0.00 | 0.00 | 87 | 1024.5 |
| 20260508231542 | 41 | 321 | 0.0 | 0.0 | 0.00 | 0.00 | 0.00 | 87 | 1024.3 |
| 20260508230100 | 41 | 321 | 0.0 | 0.0 | 0.00 | 0.00 | 0.00 | 86 | 1024.4 |
| 20260508224546 | 41 | 321 | 0.0 | 0.0 | 0.00 | 0.00 | 0.00 | 86 | 1024.3 |
| 20260508223037 | 41 | 321 | 0.9 | 2.6 | 0.00 | 0.00 | 0.00 | 86 | 1024.3 |
| 20260508221535 | 42 | 321 | 0.0 | 0.0 | 0.00 | 0.00 | 0.00 | 85 | 1024.4 |
| 20260508220105 | 43 | 321 | 0.0 | 0.0 | 0.00 | 0.00 | 0.00 | 84 | 1024.4 |
| 20260508214533 | 43 | 321 | 0.0 | 0.0 | 0.00 | 0.00 | 0.00 | 84 | 1024.4 |
| 20260508213035 | 44 | 321 | 0.0 | 0.0 | 0.00 | 0.00 | 0.00 | 84 | 1024.4 |
| 20260508211534 | 44 | 321 | 0.0 | 0.0 | 0.00 | 0.00 | 0.00 | 83 | 1024.4 |
| 20260508210034 | 44 | 321 | 0.0 | 0.0 | 0.00 | 0.00 | 0.00 | 81 | 1024.3 |
| 20260508204531 | 45 | 321 | 0.0 | 0.0 | 0.00 | 0.00 | 0.00 | 79 | 1024.1 |
| 20260508203026 | 45 | 321 | 0.0 | 0.0 | 0.00 | 0.00 | 0.00 | 77 | 1023.9 |
| 20260508201532 | 46 | 321 | 0.0 | 0.0 | 0.00 | 0.00 | 0.00 | 77 | 1023.7 |
| 20260508200025 | 47 | 321 | 0.0 | 0.0 | 0.00 | 0.00 | 0.00 | 75 | 1023.6 |
| 20260508194526 | 47 | 321 | 0.0 | 0.0 | 0.00 | 0.00 | 0.00 | 74 | 1023.4 |
| 20260508193026 | 49 | 321 | 0.0 | 0.0 | 0.00 | 0.00 | 0.00 | 71 | 1023.5 |
| 20260508191524 | 50 | 321 | 0.0 | 0.0 | 0.00 | 0.00 | 0.00 | 71 | 1023.4 |
| 20260508190027 | 51 | 321 | 0.0 | 0.9 | 0.00 | 0.00 | 0.00 | 70 | 1023.4 |
| 20260508184533 | 52 | 321 | 0.0 | 1.7 | 0.00 | 0.00 | 0.00 | 71 | 1023.3 |
| 20260508183022 | 53 | 321 | 0.0 | 0.9 | 0.00 | 0.00 | 0.00 | 70 | 1023.3 |
| 20260508181529 | 53 | 321 | 0.0 | 1.7 | 0.00 | 0.00 | 0.00 | 70 | 1023.3 |
| 20260508180022 | 55 | 315 | 0.0 | 0.9 | 0.00 | 0.00 | 0.00 | 63 | 1023.2 |
| 20260508174530 | 55 | 335 | 0.0 | 2.6 | 0.00 | 0.00 | 0.00 | 60 | 1023.1 |
| 20260508173021 | 56 | 341 | 0.9 | 2.6 | 0.00 | 0.00 | 0.00 | 58 | 1023.0 |
| 20260508171520 | 57 | 248 | 0.0 | 5.2 | 0.00 | 0.00 | 0.00 | 52 | 1023.0 |
| 20260508170020 | 57 | 244 | 1.7 | 4.3 | 0.00 | 0.00 | 0.00 | 53 | 1023.0 |
| 20260508164520 | 58 | 273 | 1.7 | 4.3 | 0.00 | 0.00 | 0.00 | 56 | 1022.9 |
| 20260508163032 | 58 | 292 | 1.7 | 3.5 | 0.00 | 0.00 | 0.00 | 61 | 1023.0 |
| 20260508161527 | 58 | 256 | 0.0 | 5.2 | 0.00 | 0.00 | 0.00 | 59 | 1022.9 |
| 20260508160017 | 58 | 261 | 0.9 | 7.8 | 0.00 | 0.00 | 0.00 | 58 | 1022.9 |
| 20260508154518 | 59 | 255 | 1.7 | 6.1 | 0.00 | 0.00 | 0.00 | 46 | 1023.0 |
| 20260508153020 | 59 | 245 | 3.5 | 8.7 | 0.00 | 0.00 | 0.00 | 44 | 1023.1 |
| 20260508151516 | 61 | 238 | 5.2 | 8.7 | 0.00 | 0.00 | 0.00 | 44 | 1023.0 |
| 20260508150022 | 60 | 231 | 1.7 | 5.2 | 0.00 | 0.00 | 0.00 | 46 | 1023.0 |
| 20260508144515 | 60 | 199 | 5.2 | 7.8 | 0.00 | 0.00 | 0.00 | 40 | 1023.1 |
| 20260508143022 | 61 | 237 | 4.3 | 7.8 | 0.00 | 0.00 | 0.00 | 37 | 1023.1 |
| 20260508141514 | 61 | 256 | 4.3 | 8.7 | 0.00 | 0.00 | 0.00 | 37 | 1023.3 |
| 20260508140045 | 61 | 244 | 5.2 | 10.4 | 0.00 | 0.00 | 0.00 | 35 | 1023.2 |
| 20260508134556 | 62 | 215 | 5.2 | 9.6 | 0.00 | 0.00 | 0.00 | 34 | 1023.3 |
| 20260508133045 | 61 | 243 | 7.8 | 12.2 | 0.00 | 0.00 | 0.00 | 32 | 1023.3 |
| 20260508131544 | 61 | 192 | 6.1 | 13.0 | 0.00 | 0.00 | 0.00 | 34 | 1023.4 |
| 20260508130043 | 60 | 222 | 7.8 | 13.9 | 0.00 | 0.00 | 0.00 | 38 | 1023.4 |
| 20260508124542 | 60 | 242 | 6.1 | 11.3 | 0.00 | 0.00 | 0.00 | 40 | 1023.5 |
| 20260508123051 | 60 | 275 | 6.1 | 13.0 | 0.00 | 0.00 | 0.00 | 46 | 1023.6 |
| 20260508121544 | 60 | 190 | 7.0 | 13.0 | 0.00 | 0.00 | 0.00 | 48 | 1023.6 |